createdAt,value
2018-05-31T00:01:08.168Z,81.66
2018-05-31T00:03:34.123Z,81.72
2018-05-31T00:06:00.562Z,81.89
2018-05-31T00:08:26.620Z,81.95
2018-05-31T00:10:52.610Z,81.69
2018-05-31T00:13:18.495Z,81.74
2018-05-31T00:15:44.404Z,81.68
2018-05-31T00:18:10.381Z,82.12
2018-05-31T00:20:36.469Z,82.01
2018-05-31T00:23:02.360Z,82.29
2018-05-31T00:25:29.271Z,82.04
2018-05-31T00:27:55.205Z,81.93
2018-05-31T00:30:21.088Z,82.61
2018-05-31T00:32:47.171Z,82.40
2018-05-31T00:35:13.052Z,82.30
2018-05-31T00:37:38.942Z,81.86
2018-05-31T00:40:04.912Z,82.14
2018-05-31T00:42:30.855Z,81.80
2018-05-31T00:44:56.879Z,82.11
2018-05-31T00:47:23.240Z,82.35
2018-05-31T00:49:49.166Z,82.34
2018-05-31T00:52:15.313Z,82.45
2018-05-31T00:54:41.903Z,82.59
2018-05-31T00:57:07.937Z,82.51
2018-05-31T00:59:33.849Z,82.68
2018-05-31T01:01:59.808Z,82.94
2018-05-31T01:04:25.700Z,82.69
2018-05-31T01:06:51.590Z,83.14
2018-05-31T01:09:17.754Z,83.19
2018-05-31T01:11:43.673Z,82.92
2018-05-31T01:14:09.571Z,82.79
2018-05-31T01:16:35.703Z,82.74
2018-05-31T01:19:01.591Z,82.88
2018-05-31T01:21:29.334Z,82.79
2018-05-31T01:23:55.570Z,82.67
2018-05-31T01:26:21.498Z,82.83
2018-05-31T01:28:47.419Z,82.90
2018-05-31T01:31:14.218Z,82.69
2018-05-31T01:33:40.261Z,82.76
2018-05-31T01:36:06.168Z,82.69
2018-05-31T01:38:32.116Z,82.82
2018-05-31T01:40:58.033Z,82.52
2018-05-31T01:43:23.934Z,82.63
2018-05-31T01:45:50.030Z,82.56
2018-05-31T01:48:15.919Z,82.87
2018-05-31T01:50:41.840Z,82.88
2018-05-31T01:53:08.119Z,82.71
2018-05-31T01:55:34.068Z,82.85
2018-05-31T01:58:00.117Z,82.87
2018-05-31T02:00:26.071Z,83.11
2018-05-31T02:02:52.006Z,83.29
2018-05-31T02:05:17.919Z,83.38
2018-05-31T02:07:43.872Z,83.76
2018-05-31T02:10:09.899Z,83.57
2018-05-31T02:12:35.841Z,84.10
2018-05-31T02:15:01.995Z,83.81
2018-05-31T02:17:27.905Z,83.37
2018-05-31T02:19:53.832Z,83.81
2018-05-31T02:22:20.627Z,83.82
2018-05-31T02:24:46.537Z,83.41
2018-05-31T02:27:12.472Z,83.55
2018-05-31T02:29:38.424Z,83.52
2018-05-31T02:32:04.369Z,83.66
2018-05-31T02:34:30.447Z,83.92
2018-05-31T02:36:56.384Z,84.09
2018-05-31T02:39:22.309Z,83.82
2018-05-31T02:41:48.195Z,83.92
2018-05-31T02:44:14.162Z,83.60
2018-05-31T02:46:40.200Z,84.11
2018-05-31T02:49:06.104Z,84.35
2018-05-31T02:51:32.365Z,84.76
2018-05-31T02:53:58.321Z,85.04
2018-05-31T02:56:24.277Z,84.97
2018-05-31T02:58:50.359Z,84.85
2018-05-31T03:01:16.309Z,84.55
2018-05-31T03:03:42.202Z,84.41
2018-05-31T03:06:08.145Z,84.12
2018-05-31T03:08:34.081Z,84.75
2018-05-31T03:11:00.127Z,84.77
2018-05-31T03:13:26.060Z,84.78
2018-05-31T03:15:51.968Z,84.99
2018-05-31T03:18:18.977Z,85.57
2018-05-31T03:20:44.911Z,85.35
2018-05-31T03:23:10.929Z,85.47
2018-05-31T03:25:36.982Z,85.39
2018-05-31T03:28:02.927Z,85.48
2018-05-31T03:30:28.831Z,85.42
2018-05-31T03:32:54.740Z,85.43
2018-05-31T03:35:20.824Z,85.47
2018-05-31T03:37:46.699Z,85.46
2018-05-31T03:40:12.667Z,85.46
2018-05-31T03:42:38.619Z,85.26
2018-05-31T03:45:04.542Z,85.22
2018-05-31T03:47:30.649Z,84.80
2018-05-31T03:49:56.581Z,84.85
2018-05-31T03:52:22.491Z,84.60
2018-05-31T03:54:48.379Z,84.90
2018-05-31T03:57:14.308Z,84.87
2018-05-31T03:59:40.311Z,84.99
2018-05-31T04:02:06.253Z,85.13
2018-05-31T04:04:32.203Z,85.36
2018-05-31T04:06:58.118Z,84.61
2018-05-31T04:09:24.016Z,84.53
2018-05-31T04:11:50.126Z,84.71
2018-05-31T04:14:16.024Z,84.63
2018-05-31T04:16:41.916Z,84.76
2018-05-31T04:19:07.878Z,85.29
2018-05-31T04:21:33.797Z,85.01
2018-05-31T04:23:59.834Z,85.29
2018-05-31T04:26:25.787Z,84.94
2018-05-31T04:28:51.672Z,84.69
2018-05-31T04:31:17.587Z,83.63
2018-05-31T04:33:43.610Z,83.26
2018-05-31T04:36:09.624Z,82.94
2018-05-31T04:38:35.546Z,82.98
2018-05-31T04:41:01.513Z,83.24
2018-05-31T04:43:27.408Z,83.25
2018-05-31T04:45:53.311Z,83.02
2018-05-31T04:48:19.378Z,82.67
2018-05-31T04:50:45.318Z,82.70
2018-05-31T04:53:11.210Z,82.72
2018-05-31T04:55:37.181Z,81.55
2018-05-31T04:58:03.092Z,82.23
2018-05-31T05:00:29.137Z,81.43
2018-05-31T05:02:55.429Z,80.87
2018-05-31T05:05:21.308Z,80.59
2018-05-31T05:07:47.231Z,80.24
2018-05-31T05:10:14.009Z,79.58
2018-05-31T05:12:40.108Z,79.73
2018-05-31T05:15:06.005Z,78.62
2018-05-31T05:17:31.964Z,78.85
2018-05-31T05:19:57.846Z,77.92
2018-05-31T05:22:23.741Z,77.29
2018-05-31T05:24:49.820Z,76.54
2018-05-31T05:27:15.721Z,75.79
2018-05-31T05:29:41.595Z,76.52
2018-05-31T05:32:07.543Z,75.70
2018-05-31T05:34:33.456Z,74.97
2018-05-31T05:37:00.088Z,73.60
2018-05-31T05:39:26.068Z,74.04
2018-05-31T05:41:51.976Z,73.04
2018-05-31T05:44:17.897Z,73.60
2018-05-31T05:46:43.831Z,72.24
2018-05-31T05:49:09.862Z,71.24
2018-05-31T05:51:35.743Z,72.00
2018-05-31T05:54:01.705Z,71.97
2018-05-31T05:56:27.642Z,71.79
2018-05-31T05:58:53.589Z,70.57
2018-05-31T06:01:19.689Z,70.07
2018-05-31T06:03:45.593Z,69.39
2018-05-31T06:06:11.472Z,69.65
2018-05-31T06:08:37.499Z,69.01
2018-05-31T06:11:03.463Z,69.26
2018-05-31T06:13:30.156Z,68.08
2018-05-31T06:15:56.103Z,65.46
2018-05-31T06:18:22.024Z,65.11
2018-05-31T06:20:47.933Z,65.89
2018-05-31T06:23:13.935Z,66.02
2018-05-31T06:25:40.024Z,64.98
2018-05-31T06:28:05.911Z,64.17
2018-05-31T06:30:31.863Z,63.64
2018-05-31T06:32:58.309Z,64.08
2018-05-31T06:35:24.209Z,61.81
2018-05-31T06:37:50.287Z,58.83
2018-05-31T06:40:16.163Z,59.16
2018-05-31T06:42:42.061Z,59.73
2018-05-31T06:45:08.149Z,59.83
2018-05-31T06:47:34.088Z,58.10
2018-05-31T06:50:00.141Z,58.32
2018-05-31T06:52:26.099Z,57.96
2018-05-31T06:54:52.026Z,57.93
2018-05-31T06:57:17.936Z,56.52
2018-05-31T06:59:43.869Z,55.96
2018-05-31T07:02:09.925Z,54.21
2018-05-31T07:04:35.787Z,52.14
2018-05-31T07:07:01.717Z,54.65
2018-05-31T07:09:27.597Z,53.57
2018-05-31T07:11:53.499Z,51.41
2018-05-31T07:14:20.344Z,51.72
2018-05-31T07:16:46.275Z,50.21
2018-05-31T07:19:12.143Z,49.90
2018-05-31T07:21:38.096Z,49.08
2018-05-31T07:24:03.987Z,48.81
2018-05-31T07:26:30.098Z,48.20
2018-05-31T07:28:56.043Z,47.89
2018-05-31T07:31:21.944Z,49.37
2018-05-31T07:33:47.884Z,47.73
2018-05-31T07:36:13.827Z,48.89
2018-05-31T07:38:39.922Z,46.57
2018-05-31T07:41:05.865Z,47.37
2018-05-31T07:43:31.807Z,48.17
2018-05-31T07:45:57.703Z,47.97
2018-05-31T07:48:23.585Z,45.96
2018-05-31T07:50:50.193Z,44.96
2018-05-31T07:53:16.106Z,43.32
2018-05-31T07:55:41.983Z,45.77
2018-05-31T07:58:08.101Z,44.14
2018-05-31T08:00:33.905Z,45.37
2018-05-31T08:02:59.974Z,44.23
2018-05-31T08:05:26.311Z,43.72
2018-05-31T08:07:52.210Z,43.44
2018-05-31T08:10:18.255Z,42.95
2018-05-31T08:12:44.259Z,43.64
2018-05-31T08:15:10.284Z,43.16
2018-05-31T08:17:36.227Z,41.75
2018-05-31T08:20:02.512Z,41.49
2018-05-31T08:22:28.399Z,42.24
2018-05-31T08:24:54.934Z,42.53
2018-05-31T08:27:21.049Z,42.11
2018-05-31T08:29:46.944Z,41.07
2018-05-31T08:32:12.819Z,41.34
2018-05-31T08:34:38.744Z,40.50
2018-05-31T08:37:04.696Z,40.28
2018-05-31T08:39:30.735Z,39.66
2018-05-31T08:41:56.679Z,38.46
2018-05-31T08:44:22.572Z,40.61
2018-05-31T08:46:48.487Z,39.41
2018-05-31T08:49:14.413Z,37.65
2018-05-31T08:51:40.863Z,38.43
2018-05-31T08:54:06.752Z,39.23
2018-05-31T08:56:32.909Z,37.71
2018-05-31T08:58:58.793Z,37.90
2018-05-31T09:01:24.711Z,37.54
2018-05-31T09:03:50.795Z,37.80
2018-05-31T09:06:16.707Z,37.08
2018-05-31T09:08:42.640Z,35.28
2018-05-31T09:11:08.971Z,35.80
2018-05-31T09:13:34.889Z,35.64
2018-05-31T09:16:00.913Z,35.86
2018-05-31T09:18:26.881Z,33.41
2018-05-31T09:20:53.733Z,33.17
2018-05-31T09:23:19.629Z,33.60
2018-05-31T09:25:45.567Z,33.62
2018-05-31T09:28:12.178Z,33.46
2018-05-31T09:30:38.092Z,34.56
2018-05-31T09:33:04.045Z,32.68
2018-05-31T09:35:29.923Z,33.52
2018-05-31T09:37:55.820Z,33.96
2018-05-31T09:40:21.921Z,32.51
2018-05-31T09:42:47.825Z,31.79
2018-05-31T09:45:13.720Z,34.21
2018-05-31T09:47:39.693Z,32.03
2018-05-31T09:50:05.613Z,32.25
2018-05-31T09:52:31.680Z,30.86
2018-05-31T09:54:57.633Z,29.89
2018-05-31T09:57:23.595Z,29.99
2018-05-31T09:59:49.475Z,30.12
2018-05-31T10:02:15.438Z,28.82
2018-05-31T10:04:41.504Z,29.08
2018-05-31T10:07:07.407Z,29.60
2018-05-31T10:09:33.673Z,30.25
2018-05-31T10:12:01.057Z,28.94
2018-05-31T10:14:26.957Z,27.49
2018-05-31T10:16:53.074Z,27.84
2018-05-31T10:19:18.975Z,28.08
2018-05-31T10:21:45.869Z,27.40
2018-05-31T10:24:11.848Z,30.17
2018-05-31T10:26:37.790Z,26.40
2018-05-31T10:29:03.861Z,27.70
2018-05-31T10:31:29.801Z,27.09
2018-05-31T10:33:55.671Z,26.80
2018-05-31T10:36:21.596Z,26.98
2018-05-31T10:38:47.519Z,28.30
2018-05-31T10:41:13.579Z,30.75
2018-05-31T10:43:39.472Z,27.27
2018-05-31T10:46:05.420Z,27.88
2018-05-31T10:48:31.288Z,26.02
2018-05-31T10:50:57.171Z,26.36
2018-05-31T10:53:23.454Z,25.52
2018-05-31T10:55:49.816Z,25.10
2018-05-31T10:58:15.720Z,25.66
2018-05-31T11:00:42.621Z,25.62
2018-05-31T11:03:08.530Z,26.56
2018-05-31T11:05:34.596Z,25.73
2018-05-31T11:08:00.784Z,25.70
2018-05-31T11:10:26.678Z,25.24
2018-05-31T11:12:52.576Z,24.00
2018-05-31T11:15:18.525Z,24.79
2018-05-31T11:17:44.578Z,28.19
2018-05-31T11:20:10.471Z,23.68
2018-05-31T11:22:36.420Z,25.28
2018-05-31T11:25:02.347Z,24.69
2018-05-31T11:27:28.227Z,24.08
2018-05-31T11:29:55.105Z,22.56
2018-05-31T11:32:21.008Z,22.76
2018-05-31T11:34:46.910Z,24.78
2018-05-31T11:37:12.856Z,21.74
2018-05-31T11:39:38.759Z,23.63
2018-05-31T11:42:04.788Z,23.26
2018-05-31T11:44:30.739Z,20.49
2018-05-31T11:46:56.671Z,21.68
2018-05-31T11:49:22.563Z,21.84
2018-05-31T11:51:48.537Z,20.87
2018-05-31T11:54:14.580Z,22.85
2018-05-31T11:56:40.477Z,22.73
2018-05-31T11:59:06.411Z,23.16
2018-05-31T12:01:32.317Z,22.44
2018-05-31T12:03:58.201Z,22.55
2018-05-31T12:06:24.326Z,24.54
2018-05-31T12:08:50.198Z,24.59
2018-05-31T12:11:16.102Z,24.14
2018-05-31T12:13:42.400Z,25.40
2018-05-31T12:16:08.320Z,25.43
2018-05-31T12:18:34.352Z,25.90
2018-05-31T12:21:00.290Z,27.26
2018-05-31T12:23:26.999Z,26.83
2018-05-31T12:25:53.624Z,27.60
2018-05-31T12:28:19.535Z,28.40
2018-05-31T12:30:45.575Z,25.58
2018-05-31T12:33:11.467Z,25.78
2018-05-31T12:35:38.069Z,27.25
2018-05-31T12:38:04.780Z,27.46
2018-05-31T12:40:30.663Z,27.04
2018-05-31T12:42:56.764Z,27.66
2018-05-31T12:45:22.646Z,27.64
2018-05-31T12:47:48.559Z,27.38
2018-05-31T12:50:14.562Z,27.42
2018-05-31T12:52:40.498Z,29.41
2018-05-31T12:55:06.504Z,31.63
2018-05-31T12:57:32.448Z,30.20
2018-05-31T12:59:58.351Z,30.31
2018-05-31T13:02:24.258Z,30.77
2018-05-31T13:04:50.237Z,30.35
2018-05-31T13:07:16.271Z,34.96
2018-05-31T13:09:42.172Z,32.84
2018-05-31T13:12:08.120Z,31.27
2018-05-31T13:14:34.045Z,31.58
2018-05-31T13:16:59.943Z,32.61
2018-05-31T13:19:26.373Z,33.08
2018-05-31T13:21:52.298Z,28.60
2018-05-31T13:24:18.183Z,31.71
2018-05-31T13:26:44.184Z,29.04
2018-05-31T13:29:10.175Z,27.40
2018-05-31T13:31:36.223Z,28.27
2018-05-31T13:34:02.236Z,29.50
2018-05-31T13:36:28.145Z,29.05
2018-05-31T13:38:54.065Z,30.30
2018-05-31T13:41:20.008Z,29.46
2018-05-31T13:43:46.050Z,32.18
2018-05-31T13:46:12.735Z,32.23
2018-05-31T13:48:38.735Z,31.40
2018-05-31T13:51:04.617Z,29.92
2018-05-31T13:53:30.868Z,28.78
2018-05-31T13:55:56.930Z,28.78
2018-05-31T13:58:22.868Z,29.98
2018-05-31T14:00:48.789Z,29.02
2018-05-31T14:03:14.713Z,29.33
2018-05-31T14:05:40.621Z,29.63
2018-05-31T14:08:07.121Z,32.82
2018-05-31T14:10:33.090Z,31.93
2018-05-31T14:12:58.957Z,30.87
2018-05-31T14:15:24.832Z,31.93
2018-05-31T14:17:50.800Z,31.61
2018-05-31T14:20:16.845Z,34.14
2018-05-31T14:22:42.777Z,33.09
2018-05-31T14:25:09.016Z,32.12
2018-05-31T14:27:34.929Z,34.24
2018-05-31T14:30:00.820Z,35.00
2018-05-31T14:32:26.874Z,32.98
2018-05-31T14:34:52.773Z,34.44
2018-05-31T14:37:18.680Z,36.96
2018-05-31T14:39:44.607Z,42.29
2018-05-31T14:42:10.552Z,37.32
2018-05-31T14:44:36.585Z,33.60
2018-05-31T14:47:03.063Z,29.40
2018-05-31T14:49:28.940Z,28.98
2018-05-31T14:51:54.850Z,28.39
2018-05-31T14:54:21.127Z,28.93
2018-05-31T14:56:47.232Z,29.79
2018-05-31T14:59:13.126Z,28.23
2018-05-31T15:01:39.064Z,28.18
2018-05-31T15:04:05.071Z,29.21
2018-05-31T15:06:30.931Z,29.09
2018-05-31T15:08:57.947Z,31.74
2018-05-31T15:11:23.848Z,30.14
2018-05-31T15:13:49.954Z,32.10
2018-05-31T15:16:15.900Z,30.82
2018-05-31T15:18:41.795Z,33.88
2018-05-31T15:21:07.878Z,35.73
2018-05-31T15:23:33.801Z,37.37
2018-05-31T15:26:00.256Z,36.28
2018-05-31T15:28:26.168Z,33.10
2018-05-31T15:30:52.121Z,36.99
2018-05-31T15:33:18.144Z,34.12
2018-05-31T15:35:44.055Z,33.74
2018-05-31T15:38:09.985Z,36.43
2018-05-31T15:40:36.749Z,35.60
2018-05-31T15:43:02.661Z,39.89
2018-05-31T15:45:28.748Z,36.14
2018-05-31T15:47:54.666Z,35.37
2018-05-31T15:50:20.667Z,33.58
2018-05-31T15:52:46.598Z,34.74
2018-05-31T15:55:12.471Z,35.58
2018-05-31T15:57:38.506Z,34.06
2018-05-31T16:00:04.464Z,34.12
2018-05-31T16:02:30.346Z,33.73
2018-05-31T16:04:56.232Z,34.63
2018-05-31T16:07:22.194Z,32.04
2018-05-31T16:09:48.239Z,31.79
2018-05-31T16:12:14.160Z,32.88
2018-05-31T16:14:40.084Z,34.12
2018-05-31T16:17:05.964Z,33.49
2018-05-31T16:19:31.847Z,34.28
2018-05-31T16:21:58.351Z,34.42
2018-05-31T16:24:25.230Z,33.93
2018-05-31T16:26:51.131Z,34.06
2018-05-31T16:29:17.140Z,34.17
2018-05-31T16:31:43.041Z,33.89
2018-05-31T16:34:09.072Z,34.43
2018-05-31T16:36:34.997Z,34.57
2018-05-31T16:39:00.871Z,34.60
2018-05-31T16:41:27.806Z,33.98
2018-05-31T16:43:59.819Z,34.05
2018-05-31T16:46:25.873Z,35.41
2018-05-31T16:48:51.784Z,34.64
2018-05-31T16:51:17.741Z,36.34
2018-05-31T16:53:43.629Z,34.91
2018-05-31T16:56:09.534Z,34.95
2018-05-31T16:58:35.533Z,35.12
2018-05-31T17:01:01.450Z,35.43
2018-05-31T17:03:27.349Z,35.37
2018-05-31T17:05:53.299Z,35.92
2018-05-31T17:08:19.289Z,36.42
2018-05-31T17:10:45.178Z,36.53
2018-05-31T17:13:11.163Z,38.04
2018-05-31T17:15:37.055Z,36.85
2018-05-31T17:18:02.968Z,36.95
2018-05-31T17:20:29.023Z,39.26
2018-05-31T17:22:54.912Z,40.30
2018-05-31T17:25:20.816Z,42.01
2018-05-31T17:27:46.750Z,41.85
2018-05-31T17:30:12.640Z,44.24
2018-05-31T17:32:38.620Z,42.07
2018-05-31T17:35:04.543Z,43.00
2018-05-31T17:37:31.200Z,44.62
2018-05-31T17:39:57.656Z,44.89
2018-05-31T17:42:23.661Z,46.82
2018-05-31T17:44:49.980Z,47.98
2018-05-31T17:47:15.877Z,47.90
2018-05-31T17:49:41.809Z,48.90
2018-05-31T17:52:07.731Z,49.18
2018-05-31T17:54:33.606Z,49.19
2018-05-31T17:56:59.648Z,50.90
2018-05-31T17:59:25.549Z,50.23
2018-05-31T18:01:51.436Z,50.55
2018-05-31T18:04:17.362Z,51.66
2018-05-31T18:06:43.260Z,53.00
2018-05-31T18:09:09.231Z,52.46
2018-05-31T18:11:35.157Z,53.35
2018-05-31T18:14:01.074Z,51.01
2018-05-31T18:16:26.953Z,51.43
2018-05-31T18:18:52.896Z,54.04
2018-05-31T18:21:18.874Z,54.82
2018-05-31T18:23:44.845Z,55.84
2018-05-31T18:26:10.915Z,55.45
2018-05-31T18:28:36.800Z,56.69
2018-05-31T18:31:03.717Z,55.98
2018-05-31T18:33:29.729Z,57.04
2018-05-31T18:35:55.615Z,55.68
2018-05-31T18:38:21.528Z,57.12
2018-05-31T18:40:47.475Z,58.16
2018-05-31T18:43:13.347Z,58.15
2018-05-31T18:45:39.331Z,58.44
2018-05-31T18:48:05.257Z,58.26
2018-05-31T18:50:31.159Z,57.34
2018-05-31T18:52:57.058Z,57.44
2018-05-31T18:55:23.008Z,58.43
2018-05-31T18:57:48.974Z,58.74
2018-05-31T19:00:15.943Z,57.11
2018-05-31T19:02:41.855Z,58.15
2018-05-31T19:05:08.287Z,59.37
2018-05-31T19:07:34.190Z,60.01
2018-05-31T19:10:00.602Z,59.84
2018-05-31T19:12:32.639Z,59.68
2018-05-31T19:14:59.411Z,60.12
2018-05-31T19:17:25.405Z,60.82
2018-05-31T19:19:54.308Z,60.39
2018-05-31T19:22:21.265Z,60.49
2018-05-31T19:24:53.204Z,60.16
2018-05-31T19:27:19.084Z,59.25
2018-05-31T19:29:44.981Z,61.05
2018-05-31T19:32:11.283Z,60.64
2018-05-31T19:34:37.231Z,60.65
2018-05-31T19:37:09.299Z,60.71
2018-05-31T19:39:35.211Z,59.46
2018-05-31T19:42:01.111Z,59.82
2018-05-31T19:44:33.036Z,61.09
2018-05-31T19:46:59.047Z,60.59
2018-05-31T19:49:24.960Z,61.02
2018-05-31T19:51:57.085Z,61.33
2018-05-31T19:54:23.012Z,61.00
2018-05-31T19:56:48.904Z,60.72
2018-05-31T19:59:21.660Z,60.95
2018-05-31T20:01:54.118Z,59.22
2018-05-31T20:04:19.989Z,59.45
2018-05-31T20:06:45.905Z,59.62
2018-05-31T20:09:11.848Z,59.65
2018-05-31T20:11:37.829Z,60.64
2018-05-31T20:14:03.741Z,59.67
2018-05-31T20:16:29.714Z,59.31
2018-05-31T20:18:55.618Z,58.54
2018-05-31T20:21:21.514Z,58.72
2018-05-31T20:23:47.563Z,57.07
2018-05-31T20:26:13.453Z,58.07
2018-05-31T20:28:39.408Z,57.82
2018-05-31T20:31:05.365Z,58.00
2018-05-31T20:33:31.251Z,58.55
2018-05-31T20:35:57.212Z,58.12
2018-05-31T20:38:23.126Z,58.38
2018-05-31T20:40:49.824Z,58.52
2018-05-31T20:43:15.705Z,57.00
2018-05-31T20:45:41.648Z,55.53
2018-05-31T20:48:07.607Z,56.26
2018-05-31T20:50:33.509Z,55.18
2018-05-31T20:52:59.456Z,54.06
2018-05-31T20:55:25.393Z,54.09
2018-05-31T20:57:51.288Z,55.11
2018-05-31T21:00:17.318Z,54.94
2018-05-31T21:02:43.212Z,53.90
2018-05-31T21:05:09.086Z,55.52
2018-05-31T21:07:35.101Z,54.24
2018-05-31T21:10:00.993Z,55.08
2018-05-31T21:12:26.970Z,55.83
2018-05-31T21:14:52.920Z,55.95
2018-05-31T21:17:18.791Z,57.41
2018-05-31T21:19:44.679Z,57.78
2018-05-31T21:22:10.609Z,56.86
2018-05-31T21:24:36.584Z,59.11
2018-05-31T21:27:02.543Z,59.61
2018-05-31T21:29:28.502Z,59.15
2018-05-31T21:31:54.380Z,60.57
2018-05-31T21:34:20.277Z,60.48
2018-05-31T21:36:46.285Z,61.27
2018-05-31T21:39:12.197Z,61.79
2018-05-31T21:41:38.089Z,62.01
2018-05-31T21:44:04.328Z,62.54
2018-05-31T21:46:31.469Z,62.27
2018-05-31T21:48:57.439Z,62.72
2018-05-31T21:51:23.355Z,62.88
2018-05-31T21:53:49.468Z,63.34
2018-05-31T21:56:15.336Z,63.28
2018-05-31T21:58:41.280Z,64.54
2018-05-31T22:01:08.047Z,63.14
2018-05-31T22:03:33.969Z,64.15
2018-05-31T22:06:00.812Z,63.72
2018-05-31T22:08:26.688Z,65.22
2018-05-31T22:10:52.577Z,65.86
2018-05-31T22:13:18.705Z,65.30
2018-05-31T22:15:44.676Z,65.59
2018-05-31T22:18:10.567Z,66.16
2018-05-31T22:20:36.491Z,65.26
2018-05-31T22:23:02.426Z,66.24
2018-05-31T22:25:28.418Z,66.40
2018-05-31T22:27:54.432Z,65.85
2018-05-31T22:30:20.314Z,65.63
2018-05-31T22:32:46.204Z,66.00
2018-05-31T22:35:12.125Z,66.41
2018-05-31T22:37:38.129Z,66.79
2018-05-31T22:40:04.078Z,66.07
2018-05-31T22:42:30.292Z,66.08
2018-05-31T22:44:56.198Z,67.28
2018-05-31T22:47:22.091Z,67.69
2018-05-31T22:49:48.161Z,67.58
2018-05-31T22:52:14.081Z,67.07
2018-05-31T22:54:39.968Z,66.91
2018-05-31T22:57:06.679Z,67.86
2018-05-31T22:59:32.568Z,67.79
2018-05-31T23:01:58.545Z,67.68
2018-05-31T23:04:24.745Z,67.23
2018-05-31T23:06:50.619Z,66.95
2018-05-31T23:09:16.511Z,68.57
2018-05-31T23:11:42.816Z,68.48
2018-05-31T23:14:08.786Z,68.35
2018-05-31T23:16:34.720Z,68.41
2018-05-31T23:19:00.697Z,67.98
2018-05-31T23:21:26.582Z,67.73
2018-05-31T23:23:52.473Z,68.78
2018-05-31T23:26:19.352Z,66.99
2018-05-31T23:28:45.274Z,67.25
2018-05-31T23:31:11.160Z,67.83
2018-05-31T23:33:37.086Z,67.52
2018-05-31T23:36:02.999Z,68.07
2018-05-31T23:38:28.996Z,68.47
2018-05-31T23:40:54.981Z,69.11
2018-05-31T23:43:20.861Z,68.07
2018-05-31T23:45:46.817Z,68.55
2018-05-31T23:48:12.776Z,69.59
2018-05-31T23:50:38.791Z,70.25
2018-05-31T23:53:04.763Z,69.72
2018-05-31T23:55:30.710Z,69.33
2018-05-31T23:57:56.592Z,69.83
